Time;durP1;ratioP1;P1;durP2;ratioP2;P2;SDS_P1;SDS_P2;PMS_P1;PMS_P2;Temp;Humidity;BMP_temperature;BMP_pressure;BME280_temperature;BME280_humidity;BME280_pressure;Samples;Min_cycle;Max_cycle;Signal;HPM_P1;HPM_P2
2021/12/31 00:01:37;;;;;;;19.23;17.43;;;;;;;4.25;93.35;93367.81;5067657;28;20300;-76
2021/12/31 00:04:02;;;;;;;18.63;16.93;;;;;;;4.16;92.51;93354.44;5065677;28;20234;-76
2021/12/31 00:06:28;;;;;;;18.20;16.50;;;;;;;4.33;92.41;93372.66;5066153;28;20233;-76
2021/12/31 00:08:53;;;;;;;18.27;16.47;;;;;;;4.50;91.42;93365.81;5053884;28;20189;-76
2021/12/31 00:11:19;;;;;;;19.37;17.40;;;;;;;4.19;90.94;93329.94;5051490;28;20218;-76
2021/12/31 00:13:44;;;;;;;18.83;16.93;;;;;;;4.34;92.10;93361.31;5054852;28;20433;-76
2021/12/31 00:16:10;;;;;;;19.07;17.23;;;;;;;4.59;90.57;93373.03;5064985;28;20225;-76
2021/12/31 00:18:35;;;;;;;19.63;17.83;;;;;;;4.45;91.13;93369.06;5053698;28;20190;-76
2021/12/31 00:21:01;;;;;;;20.23;18.03;;;;;;;4.43;91.74;93381.47;5056985;28;20246;-76
2021/12/31 00:23:27;;;;;;;20.23;18.10;;;;;;;4.41;91.56;93393.81;5053975;28;20218;-77
2021/12/31 00:25:54;;;;;;;21.47;18.77;;;;;;;4.23;92.53;93396.47;5065751;28;20304;-76
2021/12/31 00:28:19;;;;;;;20.70;18.53;;;;;;;4.24;93.02;93392.88;5068335;28;20707;-76
2021/12/31 00:30:51;;;;;;;20.67;18.47;;;;;;;4.26;92.00;93359.84;5067626;28;20225;-76
2021/12/31 00:33:16;;;;;;;20.97;18.73;;;;;;;4.23;92.33;93356.91;5057868;28;20190;-76
2021/12/31 00:35:42;;;;;;;21.67;19.47;;;;;;;4.32;92.71;93369.31;5062121;28;20312;-76
2021/12/31 00:38:08;;;;;;;21.53;19.27;;;;;;;4.05;93.28;93377.63;5058620;28;20553;-76
2021/12/31 00:40:33;;;;;;;22.63;20.30;;;;;;;3.96;94.11;93369.41;5060370;28;20962;-76
2021/12/31 00:42:59;;;;;;;21.33;19.13;;;;;;;3.82;94.58;93369.81;5057088;28;20193;-76
2021/12/31 00:45:25;;;;;;;21.77;19.37;;;;;;;4.15;93.87;93398.56;5067957;28;20216;-76
2021/12/31 00:47:51;;;;;;;22.43;19.97;;;;;;;3.95;95.31;93392.88;5069886;28;20220;-76
2021/12/31 00:50:17;;;;;;;23.53;20.20;;;;;;;4.05;95.41;93383.59;5058483;28;20601;-76
2021/12/31 00:52:43;;;;;;;24.07;21.50;;;;;;;3.78;96.39;93376.44;5056113;28;20218;-76
2021/12/31 00:55:11;;;;;;;22.80;20.33;;;;;;;3.85;96.10;93362.41;5066766;28;20204;-76
2021/12/31 00:57:37;;;;;;;25.97;21.47;;;;;;;3.91;95.36;93345.25;5066620;28;20213;-76
2021/12/31 01:00:05;;;;;;;23.93;21.20;;;;;;;4.13;94.91;93344.53;5061141;28;20185;-76
2021/12/31 01:02:31;;;;;;;22.50;19.97;;;;;;;4.29;93.65;93343.91;5072471;28;20217;-76
2021/12/31 01:04:57;;;;;;;23.40;21.00;;;;;;;4.20;92.89;93329.69;5073704;28;20197;-76
2021/12/31 01:07:22;;;;;;;22.73;20.00;;;;;;;4.37;92.88;93343.56;5054789;28;20225;-77
2021/12/31 01:09:48;;;;;;;23.03;19.10;;;;;;;4.43;92.34;93360.78;5062348;28;20193;-76
2021/12/31 01:12:14;;;;;;;22.07;19.67;;;;;;;4.48;92.63;93370.44;5061151;28;20281;-76
2021/12/31 01:14:51;;;;;;;23.13;20.57;;;;;;;4.48;91.70;93367.88;5064542;28;20182;-76
2021/12/31 01:17:22;;;;;;;23.43;19.73;;;;;;;4.31;92.71;93361.78;5070525;28;20232;-76
2021/12/31 01:19:48;;;;;;;24.43;19.63;;;;;;;4.41;92.21;93375.72;5073451;28;20332;-76
2021/12/31 01:22:18;;;;;;;25.77;21.03;;;;;;;4.33;92.20;93357.16;5071900;28;20312;-76
2021/12/31 01:24:45;;;;;;;27.73;22.43;;;;;;;4.17;93.84;93363.75;5072053;28;20189;-76
2021/12/31 01:27:12;;;;;;;25.63;21.27;;;;;;;4.36;93.08;93370.41;5054544;28;20221;-76
2021/12/31 01:29:38;;;;;;;25.33;21.07;;;;;;;4.48;92.37;93367.88;5060009;28;20198;-76
2021/12/31 01:32:04;;;;;;;23.17;20.50;;;;;;;4.47;91.51;93387.75;5065012;28;20221;-76
2021/12/31 01:34:29;;;;;;;25.03;22.20;;;;;;;3.88;92.64;93338.72;5065182;28;20178;-76
2021/12/31 01:36:55;;;;;;;25.47;21.57;;;;;;;4.13;93.01;93354.06;5060913;28;20923;-76
2021/12/31 01:39:21;;;;;;;22.53;20.13;;;;;;;4.24;93.60;93382.53;5071026;28;20193;-76
2021/12/31 01:41:46;;;;;;;24.30;21.60;;;;;;;4.15;93.06;93370.94;5072290;28;20293;-76
2021/12/31 01:44:11;;;;;;;26.70;21.73;;;;;;;4.28;92.63;93365.56;5052425;28;20194;-76
2021/12/31 01:46:53;;;;;;;25.57;20.97;;;;;;;3.90;93.54;93349.63;5057080;28;20238;-76
2021/12/31 01:49:20;;;;;;;23.27;19.50;;;;;;;3.92;93.60;93357.94;5070701;28;20862;-76
2021/12/31 01:51:46;;;;;;;23.07;20.60;;;;;;;3.76;94.61;93340.50;5067521;28;20276;-76
2021/12/31 01:54:11;;;;;;;20.90;18.70;;;;;;;3.79;94.56;93373.63;5068004;28;20190;-76
2021/12/31 01:56:37;;;;;;;21.83;19.40;;;;;;;3.73;94.93;93368.53;5067544;28;20213;-76
2021/12/31 01:59:05;;;;;;;23.17;19.60;;;;;;;4.12;93.99;93393.84;5053002;28;20194;-75
2021/12/31 02:01:30;;;;;;;21.17;18.77;;;;;;;4.09;93.30;93387.34;5069417;28;20234;-76
2021/12/31 02:03:56;;;;;;;21.03;18.93;;;;;;;3.95;93.68;93404.00;5071249;28;20250;-76
2021/12/31 02:06:21;;;;;;;20.43;18.40;;;;;;;3.72;94.40;93383.22;5056950;28;20226;-76
2021/12/31 02:08:47;;;;;;;19.47;17.63;;;;;;;3.95;93.86;93393.69;5065030;28;20196;-76
2021/12/31 02:11:16;;;;;;;20.87;18.67;;;;;;;3.94;93.36;93389.50;5070750;28;20225;-76
2021/12/31 02:13:41;;;;;;;20.03;18.00;;;;;;;3.65;94.83;93390.28;5068369;28;20186;-76
2021/12/31 02:16:08;;;;;;;21.03;18.93;;;;;;;3.77;94.87;93396.28;5061093;28;20235;-76
2021/12/31 02:18:34;;;;;;;19.30;17.40;;;;;;;3.77;94.23;93387.75;5057454;28;20272;-77
2021/12/31 02:21:02;;;;;;;19.20;17.40;;;;;;;3.80;93.78;93395.84;5070986;28;20248;-76
2021/12/31 02:23:37;;;;;;;20.47;18.27;;;;;;;3.85;93.71;93402.94;5061190;28;20253;-76
2021/12/31 02:26:02;;;;;;;20.03;18.23;;;;;;;3.66;94.99;93384.09;5072135;28;20231;-76
2021/12/31 02:28:28;;;;;;;20.87;18.73;;;;;;;3.57;94.85;93389.78;5067424;28;20185;-76
2021/12/31 02:30:56;;;;;;;21.17;18.93;;;;;;;3.69;94.38;93388.06;5070176;28;20235;-76
2021/12/31 02:33:21;;;;;;;20.40;18.17;;;;;;;3.78;93.43;93382.38;5071042;28;20186;-76
2021/12/31 02:35:47;;;;;;;20.57;18.53;;;;;;;4.04;93.07;93396.72;5066531;28;20218;-76
2021/12/31 02:38:12;;;;;;;18.37;16.57;;;;;;;4.07;92.38;93391.91;5036309;28;20262;-76
2021/12/31 02:40:39;;;;;;;19.43;17.43;;;;;;;3.83;93.68;93403.16;5050984;28;20289;-77
2021/12/31 02:43:06;;;;;;;18.53;16.63;;;;;;;3.70;94.46;93380.09;5058640;28;20267;-76
2021/12/31 02:45:35;;;;;;;19.17;17.17;;;;;;;3.69;94.15;93394.00;5056340;28;20268;-76
2021/12/31 02:48:04;;;;;;;21.07;18.83;;;;;;;3.66;95.32;93402.19;5061965;28;20261;-76
2021/12/31 02:50:34;;;;;;;21.23;19.17;;;;;;;3.54;95.21;93401.34;5066973;28;20747;-76
2021/12/31 02:53:06;;;;;;;20.67;18.67;;;;;;;3.66;94.97;93424.66;5069788;28;20201;-76
2021/12/31 02:55:34;;;;;;;20.63;18.57;;;;;;;3.60;94.67;93415.16;5053389;28;20228;-76
2021/12/31 02:58:01;;;;;;;19.77;17.87;;;;;;;3.52;95.30;93423.22;5054411;28;20190;-76
2021/12/31 03:00:27;;;;;;;21.70;19.50;;;;;;;3.52;95.30;93418.81;5055413;28;20194;-76
2021/12/31 03:02:52;;;;;;;20.97;18.77;;;;;;;3.46;96.04;93430.00;5069474;28;20197;-76
2021/12/31 03:05:19;;;;;;;21.63;19.23;;;;;;;3.64;95.72;93422.28;5059852;28;20221;-76
2021/12/31 03:07:47;;;;;;;19.07;17.17;;;;;;;3.59;95.81;93424.72;5069255;28;20284;-76
2021/12/31 03:10:13;;;;;;;19.20;17.20;;;;;;;3.59;94.17;93424.72;5068613;28;20185;-76
2021/12/31 03:12:41;;;;;;;19.20;17.43;;;;;;;3.26;94.17;93403.63;5068264;28;20193;-76
2021/12/31 03:15:08;;;;;;;19.23;17.30;;;;;;;3.45;93.63;93428.44;5052132;28;20182;-76
2021/12/31 03:17:35;;;;;;;19.63;17.83;;;;;;;3.18;94.31;93411.66;5069565;28;20236;-76
2021/12/31 03:20:12;;;;;;;17.73;16.03;;;;;;;3.16;94.54;93423.97;5067043;28;20197;-76
2021/12/31 03:22:42;;;;;;;18.60;16.80;;;;;;;3.25;93.80;93448.50;5058594;28;20233;-76
2021/12/31 03:25:10;;;;;;;19.40;17.40;;;;;;;3.31;93.99;93442.50;5063026;28;20216;-76
2021/12/31 03:27:36;;;;;;;18.27;16.53;;;;;;;3.21;93.98;93455.06;5064768;28;20248;-76
2021/12/31 03:30:02;;;;;;;19.70;17.63;;;;;;;3.32;94.10;93449.22;5055700;28;20201;-76
2021/12/31 03:32:27;;;;;;;20.13;18.03;;;;;;;3.26;94.59;93452.66;5058775;28;20244;-76
2021/12/31 03:34:53;;;;;;;18.27;16.47;;;;;;;3.18;94.70;93438.25;5067659;28;20189;-76
2021/12/31 03:37:18;;;;;;;18.53;16.70;;;;;;;3.25;94.45;93438.97;5069183;28;20293;-76
2021/12/31 03:39:43;;;;;;;19.80;17.73;;;;;;;3.19;94.15;93460.44;5067100;28;20224;-76
2021/12/31 03:42:14;;;;;;;18.37;16.57;;;;;;;3.17;94.51;93457.31;5067574;28;20225;-76
2021/12/31 03:44:40;;;;;;;21.20;17.53;;;;;;;3.32;94.53;93456.97;5057588;28;20216;-76
2021/12/31 03:47:05;;;;;;;18.70;16.77;;;;;;;3.19;92.91;93408.84;5066780;28;20255;-76
2021/12/31 03:49:31;;;;;;;19.70;17.80;;;;;;;3.54;92.23;93468.44;5069570;28;20221;-76
2021/12/31 03:51:56;;;;;;;18.17;16.40;;;;;;;3.52;91.87;93467.88;5068471;28;20225;-76
2021/12/31 03:54:21;;;;;;;19.43;17.63;;;;;;;3.27;92.74;93472.28;5069986;28;20193;-76
2021/12/31 03:56:47;;;;;;;20.00;17.97;;;;;;;3.20;92.98;93471.56;5063968;28;20237;-76
2021/12/31 03:59:13;;;;;;;18.90;16.93;;;;;;;3.12;92.64;93472.63;5059975;28;20185;-76
2021/12/31 04:01:39;;;;;;;19.87;18.00;;;;;;;3.19;93.30;93465.59;5058839;28;20255;-76
2021/12/31 04:04:06;;;;;;;17.87;16.07;;;;;;;3.06;93.61;93481.22;5070243;28;20193;-76
2021/12/31 04:06:32;;;;;;;17.67;15.97;;;;;;;3.03;92.54;93461.00;5068405;28;20255;-76
2021/12/31 04:08:57;;;;;;;20.23;18.10;;;;;;;3.30;92.34;93484.75;5069225;28;20186;-76
2021/12/31 04:11:22;;;;;;;19.27;17.37;;;;;;;2.94;93.87;93477.72;5068283;28;20275;-76
2021/12/31 04:13:48;;;;;;;19.57;17.67;;;;;;;2.92;95.00;93473.81;5067847;28;20215;-76
2021/12/31 04:16:13;;;;;;;20.33;18.23;;;;;;;3.01;93.47;93451.91;5058197;28;20256;-76
2021/12/31 04:18:39;;;;;;;20.53;18.23;;;;;;;3.00;94.84;93464.00;5061635;28;20194;-76
2021/12/31 04:21:05;;;;;;;19.60;17.47;;;;;;;2.76;95.07;93435.66;5055587;28;20288;-76
2021/12/31 04:23:34;;;;;;;20.07;17.87;;;;;;;3.05;95.17;93473.69;5065347;28;20248;-76
2021/12/31 04:25:59;;;;;;;20.13;18.10;;;;;;;3.24;93.62;93472.72;5050900;28;20229;-76
2021/12/31 04:28:26;;;;;;;18.93;17.03;;;;;;;3.12;94.67;93472.63;5053373;28;20257;-76
2021/12/31 04:30:52;;;;;;;19.53;17.63;;;;;;;3.66;91.31;93469.31;5054083;28;20225;-76
2021/12/31 04:33:18;;;;;;;18.00;16.40;;;;;;;3.57;89.82;93457.69;5064111;28;20228;-76
2021/12/31 04:35:44;;;;;;;18.67;16.63;;;;;;;3.58;88.83;93467.00;5066530;28;20284;-76
2021/12/31 04:38:10;;;;;;;18.03;16.33;;;;;;;3.59;88.55;93467.81;5067754;28;20276;-76
2021/12/31 04:40:35;;;;;;;17.27;14.97;;;;;;;3.33;90.04;93454.16;5066849;28;20233;-76
2021/12/31 04:43:00;;;;;;;17.77;16.07;;;;;;;2.62;91.94;93426.44;5063892;28;20193;-76
2021/12/31 04:45:26;;;;;;;17.47;15.63;;;;;;;2.68;93.02;93448.78;5069179;28;20193;-76
2021/12/31 04:47:51;;;;;;;20.03;17.43;;;;;;;2.73;93.83;93474.72;5066351;28;20217;-76
2021/12/31 04:50:17;;;;;;;18.23;16.43;;;;;;;2.67;93.62;93497.00;5069005;28;20205;-76
2021/12/31 04:52:43;;;;;;;19.47;17.20;;;;;;;2.80;92.35;93496.13;5067381;28;20190;-76
2021/12/31 04:55:10;;;;;;;18.47;16.67;;;;;;;2.60;93.19;93480.00;5064061;28;20209;-76
2021/12/31 04:57:36;;;;;;;16.87;15.33;;;;;;;2.57;92.79;93449.50;5067546;28;20178;-76
2021/12/31 05:00:03;;;;;;;16.03;14.67;;;;;;;2.58;92.72;93451.84;5051358;28;20250;-76
2021/12/31 05:02:29;;;;;;;17.47;15.77;;;;;;;2.56;92.98;93443.53;5066639;28;20233;-76
2021/12/31 05:04:54;;;;;;;17.97;16.37;;;;;;;2.12;93.66;93424.81;5067525;28;20224;-76
2021/12/31 05:07:20;;;;;;;18.60;16.80;;;;;;;2.16;94.82;93456.88;5066651;28;20255;-76
2021/12/31 05:09:45;;;;;;;18.43;16.73;;;;;;;2.30;93.99;93443.72;5060295;28;20201;-76
2021/12/31 05:12:15;;;;;;;18.97;16.97;;;;;;;2.20;93.94;93468.34;5054039;28;20221;-76
2021/12/31 05:14:42;;;;;;;20.73;18.53;;;;;;;2.02;95.62;93483.69;5052978;28;20195;-76
2021/12/31 05:17:08;;;;;;;20.57;18.23;;;;;;;2.20;96.72;93473.50;5060068;28;20237;-76
2021/12/31 05:19:33;;;;;;;19.53;17.53;;;;;;;2.29;96.53;93470.47;5051090;28;20218;-76
2021/12/31 05:21:58;;;;;;;18.03;16.27;;;;;;;2.22;95.36;93481.81;5064821;28;20236;-76
2021/12/31 05:24:24;;;;;;;20.17;18.07;;;;;;;1.82;95.68;93459.81;5058165;28;20199;-76
2021/12/31 05:26:49;;;;;;;23.03;20.53;;;;;;;1.83;97.17;93463.97;5059077;28;20281;-76
2021/12/31 05:29:15;;;;;;;23.40;20.87;;;;;;;1.95;97.67;93475.19;5067404;28;20194;-76
2021/12/31 05:31:40;;;;;;;19.13;17.13;;;;;;;2.32;94.59;93471.84;5065653;28;20222;-77
2021/12/31 05:34:06;;;;;;;18.20;16.50;;;;;;;2.24;92.76;93441.94;5062623;28;20189;-76
2021/12/31 05:36:31;;;;;;;18.70;16.83;;;;;;;2.37;92.44;93474.56;5066672;28;20256;-77
2021/12/31 05:38:56;;;;;;;18.20;16.50;;;;;;;2.15;93.07;93445.00;5062751;28;20188;-77
2021/12/31 05:41:22;;;;;;;18.73;16.83;;;;;;;1.92;94.19;93478.19;5059585;28;20233;-76
2021/12/31 05:43:48;;;;;;;20.53;16.87;;;;;;;1.82;95.19;93475.28;5066788;28;21100;-76
2021/12/31 05:46:13;;;;;;;18.23;16.30;;;;;;;2.13;93.81;93477.91;5071464;28;20224;-76
2021/12/31 05:48:39;;;;;;;19.33;17.33;;;;;;;2.05;94.22;93480.72;5071696;28;20209;-76
2021/12/31 05:51:04;;;;;;;18.87;16.87;;;;;;;2.09;94.07;93474.13;5069347;28;20225;-76
2021/12/31 05:53:30;;;;;;;18.73;16.90;;;;;;;2.29;92.72;93485.91;5066220;28;20192;-76
2021/12/31 05:55:55;;;;;;;18.63;16.73;;;;;;;2.00;93.64;93488.25;5063003;28;20234;-76
2021/12/31 05:58:20;;;;;;;16.10;14.50;;;;;;;2.15;92.95;93506.81;5047553;28;20200;-76
2021/12/31 06:00:46;;;;;;;17.40;15.70;;;;;;;2.23;92.36;93494.47;5063746;28;21144;-76
2021/12/31 06:03:11;;;;;;;18.20;16.50;;;;;;;2.31;92.87;93503.75;5055290;28;20201;-77
2021/12/31 06:05:37;;;;;;;17.07;15.37;;;;;;;2.49;91.04;93514.94;5055103;28;20327;-76
2021/12/31 06:08:02;;;;;;;15.73;14.23;;;;;;;2.52;91.11;93519.66;5058620;28;20272;-76
2021/12/31 06:10:28;;;;;;;17.57;15.97;;;;;;;2.68;90.42;93518.38;5070164;28;20185;-76
2021/12/31 06:12:58;;;;;;;17.20;15.60;;;;;;;2.67;90.62;93502.16;5072039;28;20249;-76
2021/12/31 06:15:25;;;;;;;16.07;13.70;;;;;;;2.72;90.34;93517.78;5068648;28;20260;-76
2021/12/31 06:17:51;;;;;;;15.20;13.83;;;;;;;2.79;89.68;93505.63;5050601;28;20265;-76
2021/12/31 06:20:16;;;;;;;17.80;16.17;;;;;;;2.48;90.85;93512.56;5066978;28;20209;-76
2021/12/31 06:22:42;;;;;;;16.37;14.77;;;;;;;2.21;93.09;93516.28;5055522;28;20210;-76
2021/12/31 06:25:08;;;;;;;16.43;15.00;;;;;;;2.32;94.43;93518.22;5071613;28;20197;-75
2021/12/31 06:27:33;;;;;;;16.00;14.60;;;;;;;2.38;92.74;93501.94;5052838;28;20230;-76
2021/12/31 06:29:59;;;;;;;16.23;14.73;;;;;;;2.22;91.96;93471.50;5071343;28;20204;-75
2021/12/31 06:32:24;;;;;;;15.87;14.40;;;;;;;2.43;91.67;93526.06;5059989;28;20218;-75
2021/12/31 06:34:50;;;;;;;16.43;14.83;;;;;;;2.35;93.14;93517.81;5062311;28;20190;-75
2021/12/31 06:37:15;;;;;;;16.87;15.23;;;;;;;2.60;91.85;93516.09;5056817;28;20229;-76
2021/12/31 06:39:42;;;;;;;18.03;16.10;;;;;;;2.77;90.65;93512.78;5065854;28;20205;-76
2021/12/31 06:42:08;;;;;;;16.03;14.53;;;;;;;2.99;90.24;93539.78;5054226;28;20244;-76
2021/12/31 06:44:38;;;;;;;17.40;15.70;;;;;;;3.15;89.65;93531.53;5069729;28;20189;-76
2021/12/31 06:47:04;;;;;;;16.47;14.83;;;;;;;2.89;88.98;93505.16;5059044;28;20217;-75
2021/12/31 06:49:30;;;;;;;17.67;16.17;;;;;;;3.27;88.95;93531.63;5063279;28;20244;-75
2021/12/31 06:51:55;;;;;;;16.73;15.10;;;;;;;3.30;89.01;93539.75;5054551;28;20226;-76
2021/12/31 06:54:21;;;;;;;18.53;16.10;;;;;;;3.16;90.21;93527.16;5058006;28;20194;-76
2021/12/31 06:56:46;;;;;;;18.17;16.67;;;;;;;3.65;87.88;93542.59;5056183;28;20233;-76
2021/12/31 06:59:13;;;;;;;17.60;15.70;;;;;;;3.64;86.52;93538.47;5045151;28;20199;-76
2021/12/31 07:01:38;;;;;;;15.93;14.57;;;;;;;3.85;85.91;93522.53;5068639;28;20292;-76
2021/12/31 07:04:04;;;;;;;16.83;15.33;;;;;;;3.71;85.84;93510.75;5071400;28;20200;-76
2021/12/31 07:06:29;;;;;;;15.83;14.47;;;;;;;3.98;85.94;93530.16;5060177;28;20230;-76
2021/12/31 07:08:55;;;;;;;16.50;15.00;;;;;;;3.70;86.18;93522.09;5066725;28;20185;-76
2021/12/31 07:11:22;;;;;;;16.30;14.80;;;;;;;4.07;85.20;93535.81;5065985;28;20233;-76
2021/12/31 07:13:51;;;;;;;16.27;14.67;;;;;;;3.63;87.06;93544.59;5063924;28;20190;-76
2021/12/31 07:16:18;;;;;;;17.70;16.10;;;;;;;3.66;87.92;93541.59;5070762;28;20232;-76
2021/12/31 07:18:43;;;;;;;15.07;13.87;;;;;;;3.83;87.24;93534.88;5069203;28;20211;-76
2021/12/31 07:21:09;;;;;;;13.33;12.43;;;;;;;3.88;87.00;93536.81;5069876;28;20248;-76
2021/12/31 07:23:35;;;;;;;12.13;11.40;;;;;;;3.76;88.22;93546.28;5060667;28;20217;-76
2021/12/31 07:26:01;;;;;;;10.73;10.13;;;;;;;4.02;87.62;93548.56;5068903;28;20228;-76
2021/12/31 07:28:28;;;;;;;10.90;10.30;;;;;;;4.08;87.07;93543.34;5065708;28;20190;-76
2021/12/31 07:30:54;;;;;;;11.30;10.70;;;;;;;4.16;87.05;93535.28;5068594;28;20233;-76
2021/12/31 07:33:23;;;;;;;12.23;11.43;;;;;;;4.13;86.32;93538.31;5060937;28;20198;-76
2021/12/31 07:35:50;;;;;;;15.00;13.60;;;;;;;4.15;87.26;93523.41;5066051;28;20240;-76
2021/12/31 07:38:21;;;;;;;17.53;15.93;;;;;;;4.05;87.49;93530.84;5054354;28;20204;-76
2021/12/31 07:40:51;;;;;;;13.70;12.77;;;;;;;4.15;87.35;93538.09;5067797;28;20281;-76
2021/12/31 07:43:18;;;;;;;16.50;15.00;;;;;;;4.33;86.49;93546.63;5057044;28;20194;-76
2021/12/31 07:45:44;;;;;;;12.50;11.60;;;;;;;4.21;85.90;93548.38;5059582;28;20285;-76
2021/12/31 07:48:09;;;;;;;11.87;10.97;;;;;;;4.19;85.94;93534.06;5055357;28;20210;-76
2021/12/31 07:50:36;;;;;;;11.43;10.43;;;;;;;4.33;85.93;93541.44;5058079;28;20229;-76
2021/12/31 07:53:03;;;;;;;11.60;10.90;;;;;;;4.18;86.05;93528.13;5070492;28;20192;-76
2021/12/31 07:55:28;;;;;;;15.37;13.87;;;;;;;4.29;85.91;93540.31;5069243;28;20906;-76
2021/12/31 07:57:54;;;;;;;15.30;13.77;;;;;;;4.37;86.00;93554.75;5067275;28;20268;-76
2021/12/31 08:00:20;;;;;;;11.47;10.67;;;;;;;4.36;84.71;93541.00;5067708;28;20209;-75
2021/12/31 08:02:45;;;;;;;13.57;12.47;;;;;;;4.45;84.74;93539.69;5069340;28;20186;-77
2021/12/31 08:05:11;;;;;;;12.13;11.40;;;;;;;4.63;84.42;93547.44;5066865;28;20209;-76
2021/12/31 08:07:36;;;;;;;11.87;11.13;;;;;;;4.62;84.49;93563.94;5051240;28;20229;-76
2021/12/31 08:10:03;;;;;;;14.27;13.27;;;;;;;4.45;84.82;93560.38;5069144;28;20189;-76
2021/12/31 08:12:29;;;;;;;11.87;11.07;;;;;;;4.42;84.22;93555.66;5069138;28;20316;-76
2021/12/31 08:14:55;;;;;;;13.03;12.13;;;;;;;4.58;84.43;93567.19;5068303;28;20235;-76
2021/12/31 08:17:20;;;;;;;12.97;12.13;;;;;;;4.63;84.47;93562.16;5067393;28;20243;-76
2021/12/31 08:19:46;;;;;;;13.30;12.30;;;;;;;4.60;84.06;93547.88;5069460;28;20186;-76
2021/12/31 08:22:11;;;;;;;13.43;12.53;;;;;;;4.59;84.53;93543.69;5064327;28;20256;-76
2021/12/31 08:24:37;;;;;;;13.37;12.47;;;;;;;4.79;83.97;93551.97;5055218;28;20220;-75
2021/12/31 08:27:02;;;;;;;11.60;10.70;;;;;;;4.80;83.19;93556.16;5060898;28;20240;-76
2021/12/31 08:29:28;;;;;;;14.30;12.93;;;;;;;4.90;83.67;93553.81;5069580;28;20192;-76
2021/12/31 08:31:53;;;;;;;13.67;12.57;;;;;;;5.01;83.76;93565.22;5066774;28;20221;-75
2021/12/31 08:34:18;;;;;;;13.67;12.67;;;;;;;4.84;83.27;93518.47;5064929;28;20202;-76
2021/12/31 08:36:44;;;;;;;11.80;11.00;;;;;;;5.11;82.40;93538.78;5061998;28;20228;-76
2021/12/31 08:39:10;;;;;;;11.47;10.77;;;;;;;5.16;82.38;93544.09;5068031;28;20208;-75
2021/12/31 08:41:37;;;;;;;11.73;11.03;;;;;;;5.08;82.48;93547.00;5064730;28;20236;-76
2021/12/31 08:44:03;;;;;;;12.80;12.00;;;;;;;5.14;83.50;93546.13;5068608;28;20224;-76
2021/12/31 08:46:29;;;;;;;12.53;11.53;;;;;;;5.24;82.39;93536.00;5069203;28;20821;-76
2021/12/31 08:48:54;;;;;;;12.77;11.53;;;;;;;5.16;81.40;93485.34;5054875;28;20205;-76
2021/12/31 08:51:19;;;;;;;14.53;13.37;;;;;;;5.62;80.53;93518.25;5054741;28;20234;-76
2021/12/31 08:53:45;;;;;;;16.23;14.97;;;;;;;5.68;80.29;93543.25;5062623;28;20193;-77
2021/12/31 08:56:10;;;;;;;17.77;16.00;;;;;;;5.77;79.40;93539.28;5069377;28;20293;-77
2021/12/31 08:58:36;;;;;;;18.73;16.97;;;;;;;5.64;79.30;93544.69;5065956;28;20249;-77
2021/12/31 09:01:02;;;;;;;19.07;17.17;;;;;;;5.48;79.83;93529.84;5067707;28;20251;-76
2021/12/31 09:03:27;;;;;;;20.60;18.50;;;;;;;5.60;80.17;93544.38;5051095;28;20765;-77
2021/12/31 09:05:53;;;;;;;19.67;17.57;;;;;;;5.60;79.77;93528.84;5066235;28;20571;-76
2021/12/31 09:08:18;;;;;;;21.20;19.10;;;;;;;5.38;79.89;93524.41;5066490;28;20863;-77
2021/12/31 09:10:43;;;;;;;26.83;21.20;;;;;;;5.42;80.51;93513.38;5059649;28;20304;-76
2021/12/31 09:13:09;;;;;;;26.63;19.50;;;;;;;5.41;80.54;93505.84;5061713;28;20215;-76
2021/12/31 09:15:35;;;;;;;24.10;20.33;;;;;;;5.57;79.62;93507.78;5070782;28;20242;-77
2021/12/31 09:18:00;;;;;;;24.53;20.93;;;;;;;5.04;79.91;93460.47;5073701;28;20241;-77
2021/12/31 09:20:27;;;;;;;21.87;19.17;;;;;;;5.63;79.85;93522.41;5062915;28;20219;-76
2021/12/31 09:22:53;;;;;;;21.30;18.93;;;;;;;5.70;79.60;93526.44;5073498;28;20236;-77
2021/12/31 09:25:18;;;;;;;23.73;18.40;;;;;;;5.74;79.73;93526.78;5070922;28;20197;-76
2021/12/31 09:27:44;;;;;;;25.13;19.00;;;;;;;5.61;79.94;93519.25;5065244;28;20206;-77
2021/12/31 09:30:10;;;;;;;24.23;20.23;;;;;;;5.61;79.83;93509.69;5065203;28;20201;-76
2021/12/31 09:32:35;;;;;;;22.93;19.63;;;;;;;5.75;78.87;93507.63;5069219;28;20255;-77
2021/12/31 09:35:01;;;;;;;23.33;19.77;;;;;;;6.16;77.84;93534.19;5066286;28;20197;-77
2021/12/31 09:37:26;;;;;;;24.50;19.57;;;;;;;6.16;77.42;93529.00;5073191;28;20233;-77
2021/12/31 09:39:52;;;;;;;21.43;19.07;;;;;;;6.11;77.96;93525.53;5065101;28;20196;-76
2021/12/31 09:42:18;;;;;;;20.50;18.00;;;;;;;6.12;78.22;93527.09;5068585;28;20233;-77
2021/12/31 09:44:48;;;;;;;22.47;19.43;;;;;;;5.98;78.73;93528.34;5056394;28;20178;-77
2021/12/31 09:47:16;;;;;;;21.03;19.00;;;;;;;6.12;78.86;93521.91;5061328;28;20229;-76
2021/12/31 09:49:42;;;;;;;22.53;18.03;;;;;;;6.16;78.50;93510.84;5070813;28;20567;-77
2021/12/31 09:52:09;;;;;;;20.50;18.33;;;;;;;6.27;78.30;93511.88;5071360;28;20282;-77
2021/12/31 09:54:35;;;;;;;20.23;18.10;;;;;;;6.15;78.12;93487.75;5073334;28;20185;-77
2021/12/31 09:57:02;;;;;;;21.33;18.17;;;;;;;6.36;77.86;93510.47;5069942;28;20240;-77
2021/12/31 09:59:28;;;;;;;22.43;18.53;;;;;;;6.46;76.70;93497.69;5058516;28;20194;-77
2021/12/31 10:01:55;;;;;;;21.20;19.03;;;;;;;6.52;77.03;93504.56;5056482;28;20435;-77
2021/12/31 10:04:22;;;;;;;20.80;18.77;;;;;;;6.36;77.38;93503.50;5057690;28;20192;-77
2021/12/31 10:07:12;;;;;;;23.80;21.23;;;;;;;6.21;78.15;93494.63;5040330;28;20226;-76
2021/12/31 10:09:41;;;;;;;24.10;20.20;;;;;;;6.36;77.84;93489.72;5071381;28;20194;-76
2021/12/31 10:12:08;;;;;;;22.30;19.93;;;;;;;6.65;76.68;93500.88;5069180;28;20923;-77
2021/12/31 10:14:38;;;;;;;25.20;20.10;;;;;;;6.57;77.30;93487.28;5072168;28;20196;-77
2021/12/31 10:17:08;;;;;;;22.87;20.57;;;;;;;6.51;77.77;93485.63;5063873;28;20217;-77
2021/12/31 10:19:34;;;;;;;23.00;20.33;;;;;;;6.93;76.03;93480.09;5052693;28;20208;-76
2021/12/31 10:22:00;;;;;;;22.83;20.10;;;;;;;6.84;76.16;93479.69;5067548;28;20233;-77
2021/12/31 10:24:32;;;;;;;23.73;19.67;;;;;;;6.89;76.09;93473.81;5069721;28;20871;-77
2021/12/31 10:27:02;;;;;;;22.43;20.03;;;;;;;7.14;75.36;93479.41;5066102;28;20229;-76
2021/12/31 10:29:27;;;;;;;23.73;20.63;;;;;;;7.06;75.02;93470.22;5057574;28;20278;-76
2021/12/31 10:31:53;;;;;;;22.37;20.17;;;;;;;7.05;75.62;93466.03;5067929;28;20234;-77
2021/12/31 10:34:29;;;;;;;23.07;20.33;;;;;;;6.87;76.82;93468.84;5069989;28;20181;-77
2021/12/31 10:37:17;;;;;;;20.83;18.63;;;;;;;6.95;77.84;93460.69;5049430;28;20235;-76
2021/12/31 10:39:44;;;;;;;21.47;19.17;;;;;;;7.05;76.97;93445.25;5036970;28;20202;-76
2021/12/31 10:42:12;;;;;;;19.60;17.50;;;;;;;7.19;76.67;93440.53;5068421;28;20268;-76
2021/12/31 10:44:44;;;;;;;21.03;18.70;;;;;;;7.34;75.66;93438.97;5061464;28;20205;-76
2021/12/31 10:47:12;;;;;;;19.00;17.00;;;;;;;7.42;75.64;93430.75;5064758;28;20225;-78
2021/12/31 10:49:59;;;;;;;19.27;17.17;;;;;;;7.72;74.96;93433.75;5052912;28;20232;-77
2021/12/31 10:52:35;;;;;;;12.83;11.80;;;;;;;7.85;78.32;93430.81;5069725;28;20221;-77
2021/12/31 10:55:19;;;;;;;10.63;9.83;;;;;;;7.97;79.12;93426.25;5070974;28;20262;-76
2021/12/31 10:57:48;;;;;;;11.23;10.53;;;;;;;7.94;79.83;93416.34;5066967;28;20244;-77
2021/12/31 11:00:15;;;;;;;12.67;11.80;;;;;;;8.17;79.12;93429.09;5069513;28;20222;-76
2021/12/31 11:02:42;;;;;;;10.37;9.87;;;;;;;8.23;79.35;93432.59;5069075;28;20188;-77
2021/12/31 11:05:10;;;;;;;11.07;10.33;;;;;;;8.01;80.24;93403.97;5054293;28;20914;-77
2021/12/31 11:07:37;;;;;;;11.10;10.50;;;;;;;8.04;79.65;93408.69;5066740;28;20316;-76
2021/12/31 11:10:04;;;;;;;11.23;10.63;;;;;;;8.17;79.19;93442.09;5060435;28;20248;-76
2021/12/31 11:12:30;;;;;;;11.77;11.17;;;;;;;8.02;79.45;93418.53;5062350;28;20228;-76
2021/12/31 11:14:56;;;;;;;11.37;10.67;;;;;;;8.00;79.08;93420.56;5068863;28;20181;-76
2021/12/31 11:17:23;;;;;;;11.67;10.87;;;;;;;8.28;78.90;93432.63;5068823;28;20256;-76
2021/12/31 11:19:49;;;;;;;11.87;10.97;;;;;;;8.27;78.30;93440.66;5060033;28;20165;-77
2021/12/31 11:22:17;;;;;;;11.37;10.67;;;;;;;8.16;78.78;93422.34;5064932;28;20243;-77